Time;durP1;ratioP1;P1;durP2;ratioP2;P2;SDS_P1;SDS_P2;PMS_P1;PMS_P2;Temp;Humidity;BMP_temperature;BMP_pressure;BME280_temperature;BME280_humidity;BME280_pressure;Samples;Min_cycle;Max_cycle;Signal;HPM_P1;HPM_P2
2022/09/18 00:00:00;;;;;;;5.68;1.33;;;;;;;12.08;64.30;100656.41;4145312;28;20053;-64
2022/09/18 00:02:03;;;;;;;6.07;1.50;;;;;;;12.06;64.74;100658.13;4150714;28;20037;-63
2022/09/18 00:04:08;;;;;;;5.53;1.25;;;;;;;12.13;64.77;100662.53;4148951;28;20046;-63
2022/09/18 00:06:13;;;;;;;2.13;0.98;;;;;;;12.07;64.30;100659.88;4150724;28;20499;-64
2022/09/18 00:08:16;;;;;;;3.05;0.93;;;;;;;12.04;64.46;100665.91;4149165;28;20054;-63
2022/09/18 00:10:18;;;;;;;6.05;1.30;;;;;;;12.06;64.71;100663.31;4148905;28;20061;-63
2022/09/18 00:12:22;;;;;;;4.47;1.20;;;;;;;12.10;64.74;100665.09;4146257;28;20042;-63
2022/09/18 00:14:26;;;;;;;5.20;1.38;;;;;;;12.04;64.60;100665.91;4150049;28;20045;-64
2022/09/18 00:16:29;;;;;;;6.20;1.40;;;;;;;12.07;64.40;100662.47;4151139;28;20038;-64
2022/09/18 00:18:32;;;;;;;6.97;1.40;;;;;;;12.04;64.31;100659.84;4150670;28;20045;-63
2022/09/18 00:20:35;;;;;;;5.20;1.27;;;;;;;11.99;65.31;100659.78;4149359;28;20046;-64
2022/09/18 00:22:39;;;;;;;6.68;1.40;;;;;;;12.01;65.04;100657.19;4149001;28;20113;-64
2022/09/18 00:24:42;;;;;;;8.13;1.60;;;;;;;12.00;65.27;100653.72;4148984;28;20049;-64
2022/09/18 00:26:45;;;;;;;5.00;1.30;;;;;;;12.02;64.80;100656.34;4139240;28;20554;-64
2022/09/18 00:28:49;;;;;;;7.38;1.42;;;;;;;12.02;64.86;100657.22;4131495;28;20046;-63
2022/09/18 00:30:52;;;;;;;6.78;1.80;;;;;;;12.05;65.09;100659.00;4141552;28;20475;-63
2022/09/18 00:32:55;;;;;;;5.72;1.33;;;;;;;12.04;65.45;100668.53;4149131;28;20137;-63
2022/09/18 00:34:58;;;;;;;4.32;1.20;;;;;;;12.10;65.05;100654.69;4150016;28;20069;-63
2022/09/18 00:37:00;;;;;;;3.97;1.20;;;;;;;12.15;64.96;100655.63;4132795;28;20054;-63
2022/09/18 00:39:04;;;;;;;5.70;1.23;;;;;;;12.15;65.12;100665.16;4149161;28;20035;-63
2022/09/18 00:41:11;;;;;;;6.45;1.33;;;;;;;12.11;64.89;100663.41;4147972;28;20077;-63
2022/09/18 00:43:23;;;;;;;3.70;1.10;;;;;;;12.16;64.92;100660.00;4141832;28;20480;-63
2022/09/18 00:45:27;;;;;;;4.32;1.30;;;;;;;12.25;64.56;100655.72;4148997;28;20088;-63
2022/09/18 00:47:34;;;;;;;7.15;1.60;;;;;;;12.25;64.67;100658.31;4149214;28;20089;-63
2022/09/18 00:49:42;;;;;;;2.38;0.85;;;;;;;12.26;64.59;100654.88;4148773;28;20042;-63
2022/09/18 00:51:47;;;;;;;5.03;1.38;;;;;;;12.30;64.74;100656.66;4149024;28;20042;-63
2022/09/18 00:53:55;;;;;;;4.88;1.50;;;;;;;12.36;64.27;100649.75;4149608;28;20440;-63
2022/09/18 00:56:00;;;;;;;7.00;2.85;;;;;;;12.31;64.75;100655.78;4147557;28;20092;-63
2022/09/18 00:58:04;;;;;;;4.97;1.35;;;;;;;12.33;64.93;100651.47;4150158;28;20034;-63
2022/09/18 01:00:11;;;;;;;5.47;1.73;;;;;;;12.34;65.15;100656.69;4148481;28;20034;-63
2022/09/18 01:02:15;;;;;;;3.20;1.02;;;;;;;12.34;64.47;100654.09;4149826;28;20053;-63
2022/09/18 01:04:18;;;;;;;2.17;0.85;;;;;;;12.35;64.50;100655.84;4148524;28;20038;-63
2022/09/18 01:06:29;;;;;;;1.73;1.00;;;;;;;12.38;64.83;100654.97;4148174;28;20119;-63
2022/09/18 01:08:42;;;;;;;4.88;1.20;;;;;;;12.41;64.69;100660.22;4147206;28;20042;-63
2022/09/18 01:11:00;;;;;;;5.03;1.33;;;;;;;12.42;64.21;100653.28;4148057;28;20121;-63
2022/09/18 01:13:13;;;;;;;2.25;0.93;;;;;;;12.32;64.79;100649.72;4147405;28;20651;-63
2022/09/18 01:15:26;;;;;;;3.80;1.30;;;;;;;12.23;64.66;100653.97;4142449;28;20117;-63
2022/09/18 01:17:38;;;;;;;4.55;1.10;;;;;;;12.19;64.50;100654.81;4148388;28;20147;-63
2022/09/18 01:20:04;;;;;;;5.20;1.40;;;;;;;12.17;64.79;100658.25;4148574;28;20041;-63
2022/09/18 01:22:20;;;;;;;4.10;1.45;;;;;;;12.13;64.83;100659.94;4148406;28;20476;-63
2022/09/18 01:24:39;;;;;;;4.32;1.02;;;;;;;12.14;65.49;100661.69;4127509;28;20111;-64
2022/09/18 01:26:52;;;;;;;5.95;1.33;;;;;;;12.23;65.16;100655.69;4147278;28;20042;-64
2022/09/18 01:29:00;;;;;;;4.70;1.13;;;;;;;12.19;65.00;100660.03;4148055;28;20081;-63
2022/09/18 01:31:08;;;;;;;3.17;1.20;;;;;;;12.19;65.17;100660.03;4148121;28;20503;-64
2022/09/18 01:33:19;;;;;;;4.75;0.93;;;;;;;12.25;65.08;100659.22;4131529;28;20046;-63
2022/09/18 01:35:27;;;;;;;2.88;1.13;;;;;;;12.25;64.86;100646.19;4147213;28;20112;-63
2022/09/18 01:37:51;;;;;;;2.88;1.50;;;;;;;12.25;65.34;100660.94;4158888;28;20037;-64
2022/09/18 01:40:01;;;;;;;2.22;1.02;;;;;;;12.24;65.24;100662.66;4136470;28;20520;-63
2022/09/18 01:42:07;;;;;;;7.20;1.52;;;;;;;12.20;65.21;100664.34;4132064;28;20046;-64
2022/09/18 01:44:16;;;;;;;5.13;0.98;;;;;;;12.15;65.50;100658.22;4132762;28;20105;-64
2022/09/18 01:46:19;;;;;;;1.90;1.00;;;;;;;12.15;65.29;100662.56;4131976;28;20043;-65
2022/09/18 01:48:27;;;;;;;3.75;1.13;;;;;;;12.16;65.48;100657.38;4142242;28;20052;-65
2022/09/18 01:50:35;;;;;;;4.82;0.90;;;;;;;12.16;65.16;100659.09;4146864;28;20439;-64
2022/09/18 01:52:42;;;;;;;3.40;1.13;;;;;;;12.16;65.67;100660.00;4147945;28;20053;-64
2022/09/18 01:54:50;;;;;;;3.67;1.17;;;;;;;12.19;65.40;100654.81;4147382;28;20050;-64
2022/09/18 01:56:57;;;;;;;3.40;0.80;;;;;;;12.20;65.16;100650.47;4147909;28;20038;-65
2022/09/18 01:59:07;;;;;;;4.50;1.40;;;;;;;12.29;65.53;100649.69;4147637;28;20104;-63
2022/09/18 02:01:23;;;;;;;2.92;0.90;;;;;;;12.37;64.99;100653.25;4147665;28;20038;-63
2022/09/18 02:03:30;;;;;;;3.17;1.08;;;;;;;12.41;65.13;100660.22;4133863;28;20041;-63
2022/09/18 02:05:37;;;;;;;1.15;0.82;;;;;;;12.45;64.98;100655.91;4143491;28;20553;-63
2022/09/18 02:07:48;;;;;;;3.38;1.05;;;;;;;12.29;64.96;100660.09;4134707;28;20524;-63
2022/09/18 02:09:52;;;;;;;2.88;1.00;;;;;;;12.24;65.78;100660.06;4147677;28;20042;-63
2022/09/18 02:12:01;;;;;;;5.38;1.10;;;;;;;12.23;66.37;100658.31;4147302;28;20587;-63
2022/09/18 02:14:11;;;;;;;7.70;1.27;;;;;;;12.28;66.23;100650.53;4147314;28;20045;-64
2022/09/18 02:16:44;;;;;;;2.58;0.95;;;;;;;12.27;66.28;100646.19;4131989;28;20056;-64
2022/09/18 02:18:52;;;;;;;1.52;0.80;;;;;;;12.31;66.60;100648.84;4147284;28;20092;-63
2022/09/18 02:20:56;;;;;;;3.13;1.10;;;;;;;12.32;66.38;100644.50;4131508;28;20520;-63
2022/09/18 02:23:02;;;;;;;2.55;0.88;;;;;;;12.27;66.67;100643.59;4147292;28;20103;-63
2022/09/18 02:25:07;;;;;;;2.67;1.48;;;;;;;12.31;66.94;100640.13;4147568;28;20042;-63
2022/09/18 02:27:13;;;;;;;6.78;2.08;;;;;;;12.31;66.81;100635.81;4133904;28;20101;-63
2022/09/18 02:29:17;;;;;;;2.15;0.90;;;;;;;12.31;67.07;100634.91;4132502;28;20050;-63
2022/09/18 02:31:20;;;;;;;3.35;1.10;;;;;;;12.27;67.42;100641.84;4141783;28;20459;-63
2022/09/18 02:33:26;;;;;;;2.97;0.73;;;;;;;12.21;67.73;100634.84;4146868;28;20042;-63
2022/09/18 02:35:40;;;;;;;4.55;1.30;;;;;;;12.18;67.64;100632.19;4131066;28;20042;-63
2022/09/18 02:37:54;;;;;;;5.07;1.27;;;;;;;12.14;68.26;100630.41;4147436;28;20234;-63
2022/09/18 02:40:14;;;;;;;2.80;1.15;;;;;;;12.14;68.37;100634.75;4147356;28;20041;-63
2022/09/18 02:42:28;;;;;;;5.32;2.00;;;;;;;12.17;68.40;100629.59;4131009;28;20066;-63
2022/09/18 02:44:42;;;;;;;3.72;1.10;;;;;;;12.17;68.36;100634.78;4146094;28;20460;-63
2022/09/18 02:46:54;;;;;;;;;;;;;;;12.02;68.91;100628.56;4131123;28;20512;-63
2022/09/18 02:49:10;;;;;;;2.58;1.15;;;;;;;12.03;68.62;100632.91;4147303;28;19975;-63
2022/09/18 02:51:27;;;;;;;3.97;0.95;;;;;;;12.04;68.50;100625.97;4147075;28;20049;-63
2022/09/18 02:53:35;;;;;;;10.10;1.38;;;;;;;12.11;68.33;100637.34;4145658;28;20606;-64
2022/09/18 02:55:44;;;;;;;3.33;1.20;;;;;;;12.09;68.84;100636.44;4146830;28;20111;-63
2022/09/18 02:57:53;;;;;;;5.25;1.35;;;;;;;12.16;68.12;100633.94;4146025;28;20545;-63
2022/09/18 02:59:59;;;;;;;3.60;0.93;;;;;;;12.16;68.27;100631.31;4139621;28;20095;-63
2022/09/18 03:02:03;;;;;;;4.85;2.15;;;;;;;12.13;68.37;100639.06;4146611;28;20030;-63
2022/09/18 03:04:13;;;;;;;2.60;1.00;;;;;;;12.13;68.12;100633.00;4146211;28;20045;-63
2022/09/18 03:06:48;;;;;;;3.20;1.05;;;;;;;12.10;68.46;100627.75;4136294;28;20034;-63
2022/09/18 03:08:51;;;;;;;1.25;0.70;;;;;;;12.13;67.95;100639.06;4145495;28;20034;-63
2022/09/18 03:10:54;;;;;;;2.85;1.00;;;;;;;12.10;67.86;100639.06;4146732;28;20492;-63
2022/09/18 03:12:57;;;;;;;2.63;1.02;;;;;;;12.10;68.34;100636.44;4146720;28;20073;-63
2022/09/18 03:14:59;;;;;;;1.90;0.90;;;;;;;12.09;68.28;100642.53;4146187;28;20096;-63
2022/09/18 03:17:02;;;;;;;2.78;0.80;;;;;;;12.14;68.39;100646.06;4146666;28;20042;-63
2022/09/18 03:19:06;;;;;;;2.53;0.68;;;;;;;12.17;68.23;100646.09;4146641;28;20037;-63
2022/09/18 03:21:11;;;;;;;3.22;0.98;;;;;;;12.18;68.33;100642.63;4130152;28;20441;-63
2022/09/18 03:23:14;;;;;;;2.70;1.10;;;;;;;12.18;69.06;100637.41;4130546;28;20046;-63
2022/09/18 03:25:18;;;;;;;2.20;0.95;;;;;;;12.19;68.13;100641.78;4156253;28;20111;-63
2022/09/18 03:27:21;;;;;;;2.58;0.80;;;;;;;12.26;68.55;100628.81;4159451;28;20033;-63
2022/09/18 03:29:24;;;;;;;2.22;0.80;;;;;;;12.28;68.35;100632.28;4146463;28;20057;-63
2022/09/18 03:31:28;;;;;;;1.88;0.65;;;;;;;12.30;68.37;100630.59;4146183;28;20053;-64
2022/09/18 03:33:31;;;;;;;2.85;0.80;;;;;;;12.28;68.19;100637.50;4133089;28;20544;-63
2022/09/18 03:35:34;;;;;;;2.22;0.93;;;;;;;12.24;68.36;100634.00;4145299;28;20064;-63
2022/09/18 03:37:38;;;;;;;6.63;1.00;;;;;;;12.29;68.20;100629.69;4146310;28;20041;-63
2022/09/18 03:39:43;;;;;;;1.58;0.90;;;;;;;12.31;68.40;100637.53;4144711;28;20116;-63
2022/09/18 03:41:48;;;;;;;2.15;0.80;;;;;;;12.29;68.66;100632.28;4146277;28;20060;-63
2022/09/18 03:43:51;;;;;;;2.10;0.73;;;;;;;12.33;68.34;100630.59;4129790;28;20096;-63
2022/09/18 03:45:55;;;;;;;2.80;1.08;;;;;;;12.28;68.38;100616.66;4146302;28;20053;-63
2022/09/18 03:47:57;;;;;;;4.05;1.73;;;;;;;12.25;68.28;100632.25;4146328;28;20046;-63
2022/09/18 03:50:00;;;;;;;3.22;0.90;;;;;;;12.29;68.39;100621.88;4146283;28;20049;-63
2022/09/18 03:52:06;;;;;;;3.45;1.00;;;;;;;12.30;68.04;100625.38;4145436;28;20072;-63
2022/09/18 03:54:16;;;;;;;1.65;0.70;;;;;;;12.29;68.43;100623.63;4145362;28;20038;-63
2022/09/18 03:56:37;;;;;;;3.92;0.88;;;;;;;12.19;67.82;100626.13;4147582;28;20050;-63
2022/09/18 03:59:09;;;;;;;2.83;0.80;;;;;;;12.12;68.28;100637.34;4146327;28;20050;-63
2022/09/18 04:01:28;;;;;;;2.15;0.80;;;;;;;12.12;68.40;100641.66;4129138;28;20423;-63
2022/09/18 04:04:00;;;;;;;2.58;0.80;;;;;;;12.14;68.19;100634.75;4106953;28;20055;-62
2022/09/18 04:06:35;;;;;;;2.05;0.73;;;;;;;12.20;68.42;100640.91;4146194;28;20137;-62
2022/09/18 04:08:56;;;;;;;3.28;0.80;;;;;;;12.20;68.58;100643.50;4127558;28;20052;-63
2022/09/18 04:11:09;;;;;;;2.08;1.10;;;;;;;12.26;67.73;100634.88;4146105;28;20503;-63
2022/09/18 04:13:12;;;;;;;1.10;0.70;;;;;;;12.20;68.11;100640.91;4145631;28;20034;-63
2022/09/18 04:15:16;;;;;;;3.42;0.88;;;;;;;12.30;67.72;100638.41;4146256;28;20069;-63
2022/09/18 04:17:19;;;;;;;2.13;0.80;;;;;;;12.34;68.32;100637.59;4146220;28;20062;-63
2022/09/18 04:19:22;;;;;;;5.38;1.35;;;;;;;12.31;68.10;100635.81;4146363;28;20042;-63
2022/09/18 04:21:24;;;;;;;3.17;1.00;;;;;;;12.29;68.21;100628.81;4146015;28;20037;-63
2022/09/18 04:23:27;;;;;;;1.90;0.60;;;;;;;12.28;67.91;100638.38;4145532;28;20504;-62
2022/09/18 04:25:31;;;;;;;3.00;0.90;;;;;;;12.31;68.13;100637.53;4146096;28;20038;-62
2022/09/18 04:27:36;;;;;;;1.95;0.60;;;;;;;12.26;68.39;100650.50;4146026;28;20120;-62
2022/09/18 04:29:39;;;;;;;4.05;0.90;;;;;;;12.25;68.09;100648.78;4146120;28;20073;-62
2022/09/18 04:31:43;;;;;;;2.45;0.65;;;;;;;12.27;68.57;100654.88;4146031;28;20073;-63
2022/09/18 04:33:49;;;;;;;2.58;0.90;;;;;;;12.27;68.05;100656.63;4144507;28;20120;-63
2022/09/18 04:35:57;;;;;;;2.55;0.68;;;;;;;12.27;68.13;100646.19;4145070;28;20064;-63
2022/09/18 04:38:00;;;;;;;2.70;0.73;;;;;;;12.28;68.33;100638.38;4146034;28;20045;-63
2022/09/18 04:40:05;;;;;;;3.03;0.80;;;;;;;12.31;67.76;100643.63;4145880;28;20388;-63
2022/09/18 04:42:09;;;;;;;2.72;0.73;;;;;;;12.28;67.84;100653.13;4145912;28;20128;-63
2022/09/18 04:44:14;;;;;;;3.00;0.73;;;;;;;12.25;68.28;100653.09;4128340;28;20046;-64
2022/09/18 04:46:18;;;;;;;1.55;0.80;;;;;;;12.19;67.61;100643.50;4145710;28;20037;-63
2022/09/18 04:48:21;;;;;;;4.30;0.77;;;;;;;12.18;67.70;100645.22;4146634;28;20447;-63
2022/09/18 04:50:25;;;;;;;3.90;1.20;;;;;;;12.20;68.22;100634.81;4164831;28;20052;-64
2022/09/18 04:52:46;;;;;;;1.23;0.68;;;;;;;12.20;68.06;100648.72;4132620;28;20309;-64
2022/09/18 04:54:49;;;;;;;2.78;0.80;;;;;;;12.27;68.30;100638.38;4148583;28;20123;-63
2022/09/18 04:56:52;;;;;;;3.30;1.35;;;;;;;12.28;68.16;100642.72;4138931;28;20054;-63
2022/09/18 04:58:56;;;;;;;3.97;1.10;;;;;;;12.16;68.13;100644.34;4136362;28;20045;-63
2022/09/18 05:01:00;;;;;;;6.05;1.20;;;;;;;12.13;68.56;100638.22;4132527;28;20088;-63
2022/09/18 05:03:03;;;;;;;1.95;0.90;;;;;;;12.17;68.23;100643.47;4148669;28;20519;-64
2022/09/18 05:05:09;;;;;;;2.80;1.02;;;;;;;12.17;67.89;100637.41;4148687;28;20042;-63
2022/09/18 05:07:13;;;;;;;4.05;1.05;;;;;;;12.18;68.16;100634.81;4131510;28;20042;-63
2022/09/18 05:09:16;;;;;;;4.18;1.27;;;;;;;12.25;68.27;100638.38;4131246;28;20116;-63
2022/09/18 05:11:19;;;;;;;3.50;1.02;;;;;;;12.19;68.00;100644.38;4149786;28;20041;-63
2022/09/18 05:13:22;;;;;;;5.68;1.30;;;;;;;12.15;68.06;100645.19;4145733;28;20603;-62
2022/09/18 05:15:34;;;;;;;1.52;0.90;;;;;;;12.15;68.34;100636.50;4132168;28;20046;-63
2022/09/18 05:17:40;;;;;;;2.10;1.13;;;;;;;12.23;68.01;100645.28;4147834;28;20077;-62
2022/09/18 05:19:45;;;;;;;2.90;1.23;;;;;;;12.23;67.85;100651.34;4160334;28;20045;-62
2022/09/18 05:21:55;;;;;;;2.85;1.00;;;;;;;12.25;68.16;100643.56;4136850;28;20125;-63
2022/09/18 05:23:58;;;;;;;4.30;1.30;;;;;;;12.19;67.83;100647.00;4127103;28;20039;-64
2022/09/18 05:26:01;;;;;;;2.70;1.00;;;;;;;12.28;67.93;100647.94;4145604;28;20124;-63
2022/09/18 05:28:04;;;;;;;4.13;1.23;;;;;;;12.31;68.19;100645.34;4147412;28;20038;-63
2022/09/18 05:30:14;;;;;;;2.92;0.80;;;;;;;12.37;67.79;100653.25;4147112;28;20100;-63
2022/09/18 05:32:27;;;;;;;4.03;1.00;;;;;;;12.29;67.65;100660.09;4152856;28;20590;-64
2022/09/18 05:34:32;;;;;;;4.22;0.98;;;;;;;12.28;67.91;100655.75;4141255;28;20128;-63
2022/09/18 05:36:35;;;;;;;4.32;1.73;;;;;;;12.23;68.13;100660.91;4117115;28;20043;-63
2022/09/18 05:38:38;;;;;;;4.78;1.13;;;;;;;12.30;67.85;100661.88;4148194;28;20034;-63
2022/09/18 05:40:43;;;;;;;9.13;2.13;;;;;;;12.26;67.88;100660.94;4130372;28;20120;-63
2022/09/18 05:42:46;;;;;;;3.03;0.90;;;;;;;12.29;67.71;100663.56;4131213;28;20042;-63
2022/09/18 05:44:50;;;;;;;3.80;1.00;;;;;;;12.29;67.60;100653.16;4147317;28;20464;-64
2022/09/18 05:46:58;;;;;;;3.45;1.13;;;;;;;12.35;67.48;100665.38;4147630;28;20073;-63
2022/09/18 05:49:02;;;;;;;3.70;0.90;;;;;;;12.33;67.24;100667.09;4147957;28;20089;-63
2022/09/18 05:51:06;;;;;;;2.63;1.00;;;;;;;12.33;67.45;100661.91;4148156;28;20041;-63
2022/09/18 05:53:12;;;;;;;3.83;1.38;;;;;;;12.31;67.29;100664.50;4146875;28;20106;-63
2022/09/18 05:55:40;;;;;;;3.08;1.27;;;;;;;12.26;67.46;100671.38;4148814;28;20034;-63
2022/09/18 05:57:43;;;;;;;5.85;1.38;;;;;;;12.29;67.31;100662.72;4131531;28;20034;-63
2022/09/18 05:59:46;;;;;;;4.63;1.65;;;;;;;12.33;67.15;100659.28;4147646;28;20235;-63
2022/09/18 06:01:49;;;;;;;2.17;1.00;;;;;;;12.30;66.66;100661.88;4148821;28;20483;-63
2022/09/18 06:04:12;;;;;;;3.67;1.33;;;;;;;12.29;66.88;100665.31;4148365;28;20045;-63
2022/09/18 06:06:21;;;;;;;5.45;1.73;;;;;;;12.36;67.29;100661.91;4147626;28;20041;-63
2022/09/18 06:08:24;;;;;;;3.80;1.70;;;;;;;12.30;66.76;100664.47;4146569;28;20495;-63
2022/09/18 06:10:29;;;;;;;2.00;1.05;;;;;;;12.23;66.74;100667.00;4147165;28;20056;-63
2022/09/18 06:12:32;;;;;;;1.97;1.10;;;;;;;12.22;66.70;100666.97;4147835;28;20511;-63
2022/09/18 06:14:36;;;;;;;2.72;1.20;;;;;;;12.23;66.91;100663.53;4146788;28;20667;-64
2022/09/18 06:16:39;;;;;;;4.30;1.33;;;;;;;12.13;66.86;100670.34;4145803;28;20514;-63
2022/09/18 06:18:47;;;;;;;3.75;1.30;;;;;;;12.15;67.16;100666.06;4147108;28;20048;-63
2022/09/18 06:20:54;;;;;;;4.28;1.30;;;;;;;12.18;67.21;100668.69;4147415;28;20030;-63
2022/09/18 06:23:02;;;;;;;4.32;1.10;;;;;;;12.25;67.20;100676.56;4147637;28;20034;-63
2022/09/18 06:25:20;;;;;;;8.65;1.83;;;;;;;12.21;67.14;100668.72;4148447;28;20463;-63
2022/09/18 06:27:23;;;;;;;3.92;1.17;;;;;;;12.27;66.80;100678.34;4147410;28;20584;-63
2022/09/18 06:29:26;;;;;;;6.95;1.20;;;;;;;12.35;66.85;100675.81;4146675;28;20038;-63
2022/09/18 06:31:35;;;;;;;2.67;1.15;;;;;;;12.25;66.67;100677.47;4146564;28;20042;-63
2022/09/18 06:33:41;;;;;;;7.82;1.52;;;;;;;12.22;66.93;100670.47;4146143;28;20052;-63
2022/09/18 06:35:47;;;;;;;4.72;1.25;;;;;;;12.26;66.66;100676.59;4147283;28;20396;-63
2022/09/18 06:38:02;;;;;;;3.42;1.17;;;;;;;12.28;66.72;100677.50;4147331;28;20046;-63
2022/09/18 06:40:15;;;;;;;5.38;1.40;;;;;;;12.27;67.04;100670.53;4147419;28;20038;-63
2022/09/18 06:42:36;;;;;;;3.75;1.20;;;;;;;12.30;66.98;100680.13;4148504;28;20440;-63
2022/09/18 06:45:08;;;;;;;3.60;1.60;;;;;;;12.43;67.01;100678.50;4145961;28;20128;-63
2022/09/18 06:47:12;;;;;;;;;;;;;;;12.40;66.97;100679.34;4146436;28;20097;-63
2022/09/18 06:49:19;;;;;;;3.90;1.48;;;;;;;12.55;66.96;100671.66;4147049;28;19959;-63
2022/09/18 06:51:21;;;;;;;4.65;1.20;;;;;;;12.62;67.07;100671.75;4130868;28;20086;-63
2022/09/18 06:53:44;;;;;;;5.05;1.75;;;;;;;12.65;66.39;100674.38;4130313;28;20046;-63
2022/09/18 06:55:47;;;;;;;6.93;1.70;;;;;;;12.73;66.59;100664.88;4147167;28;20087;-63
2022/09/18 06:57:54;;;;;;;2.60;1.33;;;;;;;12.73;66.33;100677.91;4147184;28;20488;-63
2022/09/18 06:59:57;;;;;;;6.90;1.92;;;;;;;12.74;66.70;100677.91;4146571;28;20042;-63
2022/09/18 07:02:01;;;;;;;4.65;1.50;;;;;;;12.78;66.86;100671.00;4143759;28;20057;-63
2022/09/18 07:04:21;;;;;;;3.88;1.10;;;;;;;12.82;66.27;100674.50;4141148;28;20036;-64
2022/09/18 07:06:26;;;;;;;7.00;1.30;;;;;;;12.83;66.21;100677.13;4129193;28;20535;-63
2022/09/18 07:08:30;;;;;;;4.60;1.13;;;;;;;12.83;65.80;100673.66;4144886;28;20534;-63
2022/09/18 07:10:44;;;;;;;4.80;1.20;;;;;;;12.81;65.58;100676.25;4146197;28;20065;-63
2022/09/18 07:12:48;;;;;;;3.80;1.77;;;;;;;12.79;65.51;100671.88;4147783;28;20045;-63
2022/09/18 07:14:53;;;;;;;2.15;0.95;;;;;;;12.85;65.60;100677.13;4145888;28;20164;-64
2022/09/18 07:16:57;;;;;;;2.05;0.85;;;;;;;12.95;65.73;100675.47;4146843;28;20057;-63
2022/09/18 07:18:59;;;;;;;2.28;1.00;;;;;;;12.97;65.40;100681.59;4146506;28;20049;-63
2022/09/18 07:21:04;;;;;;;3.70;1.40;;;;;;;12.95;65.30;100683.31;4146288;28;20499;-63
2022/09/18 07:23:11;;;;;;;4.25;1.17;;;;;;;12.96;65.41;100679.84;4145345;28;20041;-63
2022/09/18 07:25:21;;;;;;;2.15;1.05;;;;;;;12.98;64.81;100678.13;4128255;28;20117;-63
2022/09/18 07:27:25;;;;;;;4.00;1.23;;;;;;;12.96;64.63;100680.72;4146301;28;20038;-63
2022/09/18 07:29:28;;;;;;;;;;;;;;;12.85;64.58;100679.75;4146699;28;20423;-63
2022/09/18 07:31:35;;;;;;;5.70;0.95;;;;;;;12.85;64.33;100684.97;4146716;28;20011;-63
2022/09/18 07:33:42;;;;;;;3.50;0.90;;;;;;;12.89;64.73;100679.81;4145973;28;20042;-63
2022/09/18 07:35:51;;;;;;;3.17;1.05;;;;;;;12.78;64.34;100686.66;4144450;28;20034;-64
2022/09/18 07:37:58;;;;;;;2.53;1.00;;;;;;;12.73;64.74;100683.13;4145423;28;20033;-69
2022/09/18 07:40:13;;;;;;;1.95;0.70;;;;;;;12.73;64.65;100696.16;4146185;28;20057;-64
2022/09/18 07:42:36;;;;;;;1.75;0.85;;;;;;;12.73;64.84;100693.56;4147902;28;20597;-63
2022/09/18 07:44:39;;;;;;;5.72;1.15;;;;;;;12.74;64.66;100701.41;4146154;28;20128;-65
2022/09/18 07:46:42;;;;;;;6.80;1.55;;;;;;;12.77;64.50;100697.94;4130044;28;20054;-63
2022/09/18 07:48:46;;;;;;;3.80;0.90;;;;;;;12.77;64.73;100694.47;4145865;28;20117;-64
2022/09/18 07:50:58;;;;;;;6.30;1.27;;;;;;;12.76;64.23;100693.59;4128125;28;20575;-63
2022/09/18 07:53:04;;;;;;;1.77;0.90;;;;;;;12.80;64.74;100694.50;4123354;28;20046;-63
2022/09/18 07:55:11;;;;;;;6.47;1.30;;;;;;;12.87;64.81;100697.16;4140820;28;20045;-63
2022/09/18 07:57:13;;;;;;;1.58;0.88;;;;;;;12.95;64.81;100686.78;4130217;28;20050;-63
2022/09/18 07:59:30;;;;;;;1.70;0.73;;;;;;;12.95;64.52;100692.00;4146138;28;20046;-63
2022/09/18 08:01:36;;;;;;;2.17;0.80;;;;;;;13.02;64.42;100695.56;4146207;28;20038;-63
2022/09/18 08:03:40;;;;;;;3.65;0.98;;;;;;;13.02;64.33;100698.16;4143526;28;20054;-63
2022/09/18 08:05:46;;;;;;;4.18;1.02;;;;;;;13.00;64.02;100695.53;4146342;28;20030;-63
2022/09/18 08:07:49;;;;;;;4.88;1.20;;;;;;;13.04;64.23;100692.09;4127998;28;20073;-63
2022/09/18 08:10:11;;;;;;;5.82;1.02;;;;;;;12.97;64.03;100697.25;4147094;28;20045;-63
2022/09/18 08:12:37;;;;;;;3.50;1.10;;;;;;;13.02;64.00;100699.03;4118978;28;20126;-63
2022/09/18 08:15:04;;;;;;;3.37;0.90;;;;;;;13.05;64.08;100696.47;4140584;28;20119;-63
2022/09/18 08:17:20;;;;;;;3.38;0.85;;;;;;;13.10;64.07;100702.56;4139159;28;20042;-63
2022/09/18 08:19:40;;;;;;;5.55;1.10;;;;;;;13.08;63.87;100700.81;4146100;28;20488;-63
2022/09/18 08:21:48;;;;;;;4.20;1.00;;;;;;;13.10;63.77;100704.31;4115625;28;20526;-63
2022/09/18 08:23:52;;;;;;;1.40;0.73;;;;;;;13.12;63.93;100702.59;4134245;28;20046;-62
2022/09/18 08:25:54;;;;;;;2.33;1.20;;;;;;;13.18;63.44;100700.00;4147107;28;20037;-63
2022/09/18 08:28:00;;;;;;;1.95;0.98;;;;;;;13.23;63.24;100694.84;4149283;28;20042;-63
2022/09/18 08:30:17;;;;;;;3.60;1.10;;;;;;;13.22;63.12;100701.78;4131753;28;20077;-63
2022/09/18 08:32:24;;;;;;;3.85;1.00;;;;;;;13.21;63.28;100701.78;4148267;28;20052;-63
2022/09/18 08:34:27;;;;;;;2.60;1.30;;;;;;;13.34;63.64;100694.91;4148933;28;20411;-63
2022/09/18 08:36:30;;;;;;;1.42;0.90;;;;;;;13.40;63.10;100697.59;4149176;28;20435;-63
2022/09/18 08:38:41;;;;;;;4.80;1.30;;;;;;;13.37;63.29;100703.66;4132983;28;20358;-63
2022/09/18 08:41:19;;;;;;;3.80;1.10;;;;;;;13.36;62.98;100701.03;4148188;28;20053;-63
2022/09/18 08:43:40;;;;;;;4.18;1.20;;;;;;;13.39;63.05;100707.19;4148728;28;20518;-63
2022/09/18 08:45:54;;;;;;;3.58;1.38;;;;;;;13.42;62.88;100701.09;4146269;28;20032;-63
2022/09/18 08:48:01;;;;;;;3.35;1.10;;;;;;;13.44;62.76;100694.13;4141380;28;20515;-63
2022/09/18 08:50:14;;;;;;;3.13;1.20;;;;;;;13.56;62.67;100699.41;4149029;28;20125;-63
2022/09/18 08:52:21;;;;;;;3.65;1.38;;;;;;;13.63;62.75;100695.13;4148954;28;20038;-63
2022/09/18 08:54:42;;;;;;;7.18;1.95;;;;;;;13.69;62.34;100691.66;4164805;28;20470;-62
2022/09/18 08:56:51;;;;;;;3.72;1.67;;;;;;;13.65;62.37;100692.50;4132854;28;20054;-63
2022/09/18 08:59:15;;;;;;;8.93;1.77;;;;;;;13.48;62.39;100695.91;4147586;28;20037;-63
2022/09/18 09:01:20;;;;;;;4.80;1.20;;;;;;;13.50;62.38;100701.16;4157195;28;20029;-63
2022/09/18 09:03:50;;;;;;;5.45;1.48;;;;;;;13.52;62.64;100692.47;4147526;28;20057;-63
2022/09/18 09:05:58;;;;;;;2.45;1.15;;;;;;;13.57;62.35;100697.72;4148700;28;20034;-63
2022/09/18 09:08:22;;;;;;;4.70;1.30;;;;;;;13.67;62.32;100702.13;4148736;28;20076;-63
2022/09/18 09:10:43;;;;;;;4.30;1.10;;;;;;;13.69;61.93;100695.16;4131872;28;20110;-62
2022/09/18 09:12:56;;;;;;;2.33;0.88;;;;;;;13.71;61.80;100697.75;4148689;28;20042;-62
2022/09/18 09:15:15;;;;;;;3.65;1.52;;;;;;;13.76;61.74;100694.31;4147840;28;20050;-62
2022/09/18 09:17:39;;;;;;;3.33;1.35;;;;;;;13.85;61.34;100696.09;4132131;28;20108;-61
2022/09/18 09:19:53;;;;;;;7.72;1.58;;;;;;;13.95;61.24;100697.88;4147041;28;20080;-62
2022/09/18 09:22:06;;;;;;;7.17;1.53;;;;;;;14.00;61.34;100694.41;4145695;28;20045;-61
2022/09/18 09:24:23;;;;;;;5.50;1.17;;;;;;;14.06;60.40;100689.19;4158628;28;20288;-61
2022/09/18 09:26:47;;;;;;;7.70;1.50;;;;;;;14.05;60.29;100692.72;4147824;28;20407;-62
2022/09/18 09:29:18;;;;;;;9.82;2.20;;;;;;;14.14;60.05;100697.97;4148376;28;20067;-61
2022/09/18 09:31:54;;;;;;;8.43;1.90;;;;;;;14.12;59.81;100694.47;4130757;28;20051;-62
2022/09/18 09:34:15;;;;;;;6.45;1.67;;;;;;;14.08;59.92;100700.56;4141124;28;20045;-61
2022/09/18 09:36:29;;;;;;;6.22;1.70;;;;;;;14.05;59.23;100701.41;4138482;28;20114;-62
2022/09/18 09:38:42;;;;;;;3.97;1.20;;;;;;;14.07;59.12;100698.81;4144456;28;20381;-61
2022/09/18 09:40:50;;;;;;;5.80;1.30;;;;;;;14.09;59.70;100690.09;4139420;28;20487;-62
2022/09/18 09:43:01;;;;;;;3.67;1.20;;;;;;;14.12;59.21;100694.47;4162581;28;20120;-63
2022/09/18 09:45:14;;;;;;;8.95;1.70;;;;;;;14.30;59.14;100688.41;4124574;28;20145;-66
2022/09/18 09:47:30;;;;;;;3.70;1.42;;;;;;;14.33;58.26;100691.03;4158907;28;20045;-62
2022/09/18 09:49:46;;;;;;;5.05;1.33;;;;;;;14.39;58.07;100690.19;4155334;28;20038;-61
2022/09/18 09:51:56;;;;;;;4.28;1.38;;;;;;;14.38;58.65;100685.81;4146345;28;20104;-63
2022/09/18 09:54:00;;;;;;;3.47;1.17;;;;;;;14.40;58.98;100682.34;4163418;28;20084;-62
2022/09/18 09:56:14;;;;;;;4.15;1.70;;;;;;;14.45;59.07;100684.97;4147557;28;20041;-61
2022/09/18 09:58:30;;;;;;;4.30;1.13;;;;;;;14.39;58.10;100680.59;4140410;28;20531;-61
2022/09/18 10:00:36;;;;;;;;;;;;;;;14.27;57.94;100686.66;4146091;28;20089;-61